Atlantic Nyala — 9HYD9 — position and weather

sailwx.info

Track history (hours):
 
Tides and Currents Weather Stations Pressure Air Temp Water Temp Dewpoint Dewpoint Depression Visibility Wind Speed Wind Dir Waves Ship Positions

Atlantic Nyala

Last reported at 2015-Jan-25 10:09 UTC. Time now 2015-Feb-01 08:46 UTC.
Position N 46°27' W 072°16'.

Length 173 m; draft 7.7 m.

Type: Ship. MMSI: 249692000.

Date/timePositionNaut miles runAvg speedWind from/ knotsBaromVisibWave heightAir tempDewpointWater temp
2015-Jan-25 10:09N 46°27' W 072°16'814.0
2015-Jan-25 09:33N 46°23' W 072°27'9 9.5
2015-Jan-25 08:33N 46°17' W 072°37'1110.6
2015-Jan-25 07:33N 46°12' W 072°51'47 1.5
2015-Jan-23 23:33N 45°34' W 073°30'41 1.4
2015-Jan-22 19:04N 46°08' W 072°57'5 8.9
2015-Jan-22 18:33N 46°11' W 072°54'9 9.1
2015-Jan-22 17:33N 46°16' W 072°42'7 7.4
2015-Jan-22 16:33N 46°19' W 072°33'9 8.5
2015-Jan-22 15:33N 46°25' W 072°23'9 9.3
2015-Jan-22 14:33N 46°31' W 072°13'1211.6
2015-Jan-22 13:33N 46°37' W 071°58'  
2015-Jan-18 03:25N 39°51' W 069°40'39 7.6
2015-Jan-17 22:20N 39°30' W 070°22'7 8.2
2015-Jan-17 21:26N 39°26' W 070°30'1513.0
2015-Jan-17 20:17N 39°18' W 070°46'1113.0
2015-Jan-17 19:25N 39°12' W 070°58'1112.7
2015-Jan-17 18:33N 39°06' W 071°10'1812.2
2015-Jan-17 17:05N 38°56' W 071°29'911.9
2015-Jan-17 16:22N 38°51' W 071°39'1011.9
2015-Jan-17 15:30N 38°46' W 071°50'211 8.1
2015-Jan-16 13:30N 37°57' W 076°12'3812.1
2015-Jan-16 10:22N 38°34' W 076°26'1113.6
2015-Jan-16 09:34N 38°45' W 076°26'1413.6
2015-Jan-16 08:34N 38°58' W 076°23'1111.0
2015-Jan-16 07:34N 39°09' W 076°25'9 8.9
2015-Jan-16 06:34N 39°15' W 076°34'1 1.1
2015-Jan-16 05:32N 39°16' W 076°34'0 0.0
2015-Jan-16 04:32N 39°16' W 076°34'0 0.0
2015-Jan-16 03:32N 39°16' W 076°34'0 0.0
2015-Jan-16 02:32N 39°16' W 076°34'0 0.0
2015-Jan-16 01:32N 39°16' W 076°34'0 0.0
2015-Jan-16 00:32N 39°16' W 076°34'0 0.0
2015-Jan-15 23:32N 39°16' W 076°34'0 0.0
2015-Jan-15 22:32N 39°16' W 076°34'0 0.0
2015-Jan-15 21:29N 39°16' W 076°34'0 0.0
2015-Jan-15 20:32N 39°16' W 076°34'0 0.0
2015-Jan-15 19:32N 39°16' W 076°34'0 0.0
2015-Jan-15 18:32N 39°16' W 076°34'0 0.0
2015-Jan-15 17:32N 39°16' W 076°34'0 0.0
2015-Jan-15 16:32N 39°16' W 076°34'0 0.0
2015-Jan-15 15:32N 39°16' W 076°34'0 0.0
2015-Jan-15 14:32N 39°16' W 076°34'0 0.0
2015-Jan-15 13:32N 39°16' W 076°34'0 0.0
2015-Jan-15 12:32N 39°16' W 076°34'0 0.0
2015-Jan-15 11:32N 39°16' W 076°34'0 0.0
2015-Jan-15 10:32N 39°16' W 076°34'  
Track history (hours):
 
Tides and Currents Weather Stations Pressure Air Temp Water Temp Dewpoint Dewpoint Depression Visibility Wind Speed Wind Dir Waves Ship Positions

Atlantic Nyala

Last reported at 2015-Jan-25 10:09 UTC. Time now 2015-Feb-01 08:46 UTC.
Position N 46°27' W 072°16'.

Length 173 m; draft 7.7 m.

Type: Ship. MMSI: 249692000.

Date/timePositionNaut miles runAvg speedWind from/ knotsBaromVisibWave heightAir tempDewpointWater temp
2015-Jan-25 10:09N 46°27' W 072°16'814.0
2015-Jan-25 09:33N 46°23' W 072°27'9 9.5
2015-Jan-25 08:33N 46°17' W 072°37'1110.6
2015-Jan-25 07:33N 46°12' W 072°51'47 1.5
2015-Jan-23 23:33N 45°34' W 073°30'41 1.4
2015-Jan-22 19:04N 46°08' W 072°57'5 8.9
2015-Jan-22 18:33N 46°11' W 072°54'9 9.1
2015-Jan-22 17:33N 46°16' W 072°42'7 7.4
2015-Jan-22 16:33N 46°19' W 072°33'9 8.5
2015-Jan-22 15:33N 46°25' W 072°23'9 9.3
2015-Jan-22 14:33N 46°31' W 072°13'1211.6
2015-Jan-22 13:33N 46°37' W 071°58'  
2015-Jan-18 03:25N 39°51' W 069°40'39 7.6
2015-Jan-17 22:20N 39°30' W 070°22'7 8.2
2015-Jan-17 21:26N 39°26' W 070°30'1513.0
2015-Jan-17 20:17N 39°18' W 070°46'1113.0
2015-Jan-17 19:25N 39°12' W 070°58'1112.7
2015-Jan-17 18:33N 39°06' W 071°10'1812.2
2015-Jan-17 17:05N 38°56' W 071°29'911.9
2015-Jan-17 16:22N 38°51' W 071°39'1011.9
2015-Jan-17 15:30N 38°46' W 071°50'211 8.1
2015-Jan-16 13:30N 37°57' W 076°12'3812.1
2015-Jan-16 10:22N 38°34' W 076°26'1113.6
2015-Jan-16 09:34N 38°45' W 076°26'1413.6
2015-Jan-16 08:34N 38°58' W 076°23'1111.0
2015-Jan-16 07:34N 39°09' W 076°25'9 8.9
2015-Jan-16 06:34N 39°15' W 076°34'1 1.1
2015-Jan-16 05:32N 39°16' W 076°34'0 0.0
2015-Jan-16 04:32N 39°16' W 076°34'0 0.0
2015-Jan-16 03:32N 39°16' W 076°34'0 0.0
2015-Jan-16 02:32N 39°16' W 076°34'0 0.0
2015-Jan-16 01:32N 39°16' W 076°34'0 0.0
2015-Jan-16 00:32N 39°16' W 076°34'0 0.0
2015-Jan-15 23:32N 39°16' W 076°34'0 0.0
2015-Jan-15 22:32N 39°16' W 076°34'0 0.0
2015-Jan-15 21:29N 39°16' W 076°34'0 0.0
2015-Jan-15 20:32N 39°16' W 076°34'0 0.0
2015-Jan-15 19:32N 39°16' W 076°34'0 0.0
2015-Jan-15 18:32N 39°16' W 076°34'0 0.0
2015-Jan-15 17:32N 39°16' W 076°34'0 0.0
2015-Jan-15 16:32N 39°16' W 076°34'0 0.0
2015-Jan-15 15:32N 39°16' W 076°34'0 0.0
2015-Jan-15 14:32N 39°16' W 076°34'0 0.0
2015-Jan-15 13:32N 39°16' W 076°34'0 0.0
2015-Jan-15 12:32N 39°16' W 076°34'0 0.0
2015-Jan-15 11:32N 39°16' W 076°34'0 0.0
2015-Jan-15 10:32N 39°16' W 076°34'  

Dump ship's entire track history